createdAt,value
2023-03-05T00:00:56.744Z,9.00
2023-03-05T00:04:00.581Z,9.73
2023-03-05T00:07:03.536Z,8.57
2023-03-05T00:10:07.285Z,9.63
2023-03-05T00:13:10.162Z,9.33
2023-03-05T00:16:15.542Z,9.95
2023-03-05T00:19:18.298Z,9.32
2023-03-05T00:22:21.334Z,8.88
2023-03-05T00:25:24.098Z,9.10
2023-03-05T00:28:26.968Z,8.33
2023-03-05T00:31:32.000Z,8.82
2023-03-05T00:34:36.472Z,10.13
2023-03-05T00:37:39.478Z,9.52
2023-03-05T00:40:42.391Z,9.30
2023-03-05T00:43:45.504Z,9.53
2023-03-05T00:46:48.847Z,10.13
2023-03-05T00:49:51.993Z,10.85
2023-03-05T00:52:54.865Z,11.52
2023-03-05T00:55:59.628Z,10.50
2023-03-05T00:59:02.478Z,8.93
2023-03-05T01:02:05.387Z,11.07
2023-03-05T01:05:11.337Z,9.05
2023-03-05T01:08:14.349Z,9.45
2023-03-05T01:11:17.256Z,9.47
2023-03-05T01:14:21.237Z,9.47
2023-03-05T01:17:24.016Z,10.13
2023-03-05T01:20:26.813Z,9.05
2023-03-05T01:23:29.635Z,8.63
2023-03-05T01:26:32.673Z,9.47
2023-03-05T01:29:37.386Z,9.20
2023-03-05T01:32:40.293Z,8.73
2023-03-05T01:35:45.862Z,8.88
2023-03-05T01:38:49.474Z,8.85
2023-03-05T01:41:52.405Z,9.17
2023-03-05T01:45:10.346Z,7.63
2023-03-05T01:48:13.129Z,8.65
2023-03-05T01:51:18.974Z,9.10
2023-03-05T01:54:25.432Z,8.10
2023-03-05T01:57:38.517Z,8.80
2023-03-05T02:00:47.131Z,8.27
2023-03-05T02:03:50.129Z,8.32
2023-03-05T02:06:53.652Z,8.70
2023-03-05T02:09:56.380Z,8.75
2023-03-05T02:13:02.401Z,8.97
2023-03-05T02:16:05.596Z,8.83
2023-03-05T02:19:10.867Z,8.73
2023-03-05T02:22:22.386Z,8.52
2023-03-05T02:25:29.027Z,8.57
2023-03-05T02:28:42.757Z,7.43
2023-03-05T02:31:45.997Z,7.83
2023-03-05T02:34:48.843Z,8.20
2023-03-05T02:37:51.680Z,6.75
2023-03-05T02:40:54.504Z,7.00
2023-03-05T02:43:57.420Z,6.87
2023-03-05T02:47:01.018Z,7.27
2023-03-05T02:50:05.143Z,6.97
2023-03-05T02:53:08.239Z,6.43
2023-03-05T02:56:11.148Z,5.68
2023-03-05T02:59:13.980Z,6.60
2023-03-05T03:02:17.968Z,7.00
2023-03-05T03:05:20.623Z,7.30
2023-03-05T03:08:23.336Z,6.60
2023-03-05T03:11:26.317Z,6.30
2023-03-05T03:14:32.960Z,7.30
2023-03-05T03:17:36.962Z,7.80
2023-03-05T03:20:39.960Z,6.32
2023-03-05T03:23:42.731Z,8.50
2023-03-05T03:26:45.376Z,8.38
2023-03-05T03:29:48.124Z,7.30
2023-03-05T03:32:52.532Z,6.90
2023-03-05T03:35:55.334Z,6.57
2023-03-05T03:38:58.228Z,6.13
2023-03-05T03:42:01.038Z,6.47
2023-03-05T03:45:04.352Z,6.13
2023-03-05T03:48:07.073Z,6.17
2023-03-05T03:51:09.948Z,6.28
2023-03-05T03:54:13.918Z,5.72
2023-03-05T03:57:16.584Z,5.60
2023-03-05T04:00:19.706Z,6.23
2023-03-05T04:03:22.416Z,6.53
2023-03-05T04:06:25.591Z,5.38
2023-03-05T04:09:28.399Z,6.10
2023-03-05T04:12:31.106Z,5.65
2023-03-05T04:15:34.373Z,5.17
2023-03-05T04:18:37.113Z,5.33
2023-03-05T04:21:40.369Z,5.32
2023-03-05T04:24:43.427Z,4.78
2023-03-05T04:27:46.171Z,4.82
2023-03-05T04:30:49.056Z,4.90
2023-03-05T04:33:52.017Z,4.47
2023-03-05T04:36:54.817Z,5.00
2023-03-05T04:39:57.596Z,5.03
2023-03-05T04:43:00.481Z,5.75
2023-03-05T04:46:03.466Z,5.27
2023-03-05T04:49:06.492Z,5.37
2023-03-05T04:52:11.460Z,4.78
2023-03-05T04:55:15.609Z,4.47
2023-03-05T04:58:18.365Z,4.80
2023-03-05T05:01:21.479Z,5.00
2023-03-05T05:04:24.666Z,4.70
2023-03-05T05:07:27.535Z,4.70
2023-03-05T05:10:31.696Z,4.30
2023-03-05T05:13:35.533Z,4.60
2023-03-05T05:16:38.254Z,5.33
2023-03-05T05:19:41.101Z,7.00
2023-03-05T05:22:44.183Z,8.27
2023-03-05T05:25:47.071Z,8.68
2023-03-05T05:28:49.925Z,8.90
2023-03-05T05:31:54.316Z,7.70
2023-03-05T05:34:58.720Z,6.57
2023-03-05T05:38:01.461Z,6.00
2023-03-05T05:41:07.985Z,6.07
2023-03-05T05:44:11.112Z,6.35
2023-03-05T05:47:15.658Z,7.17
2023-03-05T05:50:20.418Z,7.53
2023-03-05T05:53:23.742Z,9.35
2023-03-05T05:56:26.511Z,11.50
2023-03-05T05:59:29.291Z,7.90
2023-03-05T06:02:32.048Z,7.67
2023-03-05T06:05:35.415Z,6.67
2023-03-05T06:08:38.866Z,9.23
2023-03-05T06:11:41.636Z,9.88
2023-03-05T06:14:44.365Z,10.25
2023-03-05T06:17:48.082Z,11.10
2023-03-05T06:21:05.537Z,13.43
2023-03-05T06:24:08.428Z,13.07
2023-03-05T06:27:11.188Z,7.55
2023-03-05T06:30:14.249Z,8.98
2023-03-05T06:33:17.806Z,7.87
2023-03-05T06:36:22.311Z,8.57
2023-03-05T06:39:25.180Z,10.40
2023-03-05T06:42:27.982Z,8.50
2023-03-05T06:45:30.830Z,7.20
2023-03-05T06:48:34.061Z,6.90
2023-03-05T06:51:39.302Z,6.30
2023-03-05T06:54:42.173Z,6.95
2023-03-05T06:57:45.282Z,7.80
2023-03-05T07:00:48.287Z,8.00
2023-03-05T07:03:55.513Z,7.10
2023-03-05T07:06:59.454Z,6.70
2023-03-05T07:10:02.513Z,5.60
2023-03-05T07:13:05.215Z,5.90
2023-03-05T07:16:10.617Z,6.00
2023-03-05T07:19:14.108Z,6.00
2023-03-05T07:22:17.102Z,5.83
2023-03-05T07:25:21.737Z,6.25
2023-03-05T07:28:25.185Z,5.78
2023-03-05T07:31:31.171Z,4.65
2023-03-05T07:34:34.080Z,4.88
2023-03-05T07:37:36.858Z,4.23
2023-03-05T07:40:39.669Z,5.57
2023-03-05T07:43:43.067Z,4.78
2023-03-05T07:46:45.929Z,5.47
2023-03-05T07:49:48.708Z,4.57
2023-03-05T07:52:51.617Z,5.80
2023-03-05T07:55:54.553Z,6.68
2023-03-05T07:59:00.665Z,7.47
2023-03-05T08:02:03.507Z,5.90
2023-03-05T08:05:06.719Z,6.00
2023-03-05T08:08:11.488Z,6.10
2023-03-05T08:11:16.404Z,6.90
2023-03-05T08:14:19.204Z,6.40
2023-03-05T08:17:21.954Z,7.13
2023-03-05T08:20:24.800Z,5.97
2023-03-05T08:23:28.538Z,5.50
2023-03-05T08:26:33.450Z,5.15
2023-03-05T08:29:36.278Z,7.13
2023-03-05T08:32:39.573Z,6.97
2023-03-05T08:35:42.471Z,6.37
2023-03-05T08:38:46.877Z,8.53
2023-03-05T08:41:49.583Z,7.20
2023-03-05T08:44:52.353Z,6.38
2023-03-05T08:47:57.477Z,7.93
2023-03-05T08:51:15.554Z,7.95
2023-03-05T08:54:18.369Z,7.37
2023-03-05T08:57:21.128Z,6.63
2023-03-05T09:00:24.038Z,5.20
2023-03-05T09:03:27.368Z,5.57
2023-03-05T09:06:30.205Z,5.85
2023-03-05T09:09:33.228Z,5.13
2023-03-05T09:12:36.016Z,5.93
2023-03-05T09:15:39.565Z,5.63
2023-03-05T09:18:43.118Z,5.40
2023-03-05T09:21:45.864Z,5.30
2023-03-05T09:24:48.697Z,6.00
2023-03-05T09:27:51.412Z,5.82
2023-03-05T09:30:55.370Z,6.65
2023-03-05T09:33:58.187Z,5.55
2023-03-05T09:37:00.977Z,6.13
2023-03-05T09:40:04.308Z,6.23
2023-03-05T09:43:19.626Z,5.70
2023-03-05T09:46:56.594Z,5.57
2023-03-05T09:50:32.673Z,5.32
2023-03-05T09:53:51.103Z,4.80
2023-03-05T09:56:59.063Z,5.60
2023-03-05T10:00:08.974Z,5.47
2023-03-05T10:03:44.658Z,4.20
2023-03-05T10:07:00.818Z,4.10
2023-03-05T10:10:26.393Z,4.50
2023-03-05T10:13:41.165Z,4.30
2023-03-05T10:17:01.609Z,4.25
2023-03-05T10:20:19.252Z,3.80
2023-03-05T10:23:37.282Z,4.35
2023-03-05T10:27:07.842Z,4.60
2023-03-05T10:30:25.710Z,4.63
2023-03-05T10:33:53.076Z,4.65
2023-03-05T10:37:08.372Z,4.43
2023-03-05T10:40:17.026Z,4.80
2023-03-05T10:43:25.746Z,4.95
2023-03-05T10:46:35.599Z,4.90
2023-03-05T10:49:52.208Z,4.05
2023-03-05T10:53:14.102Z,3.55
2023-03-05T10:56:21.959Z,3.63
2023-03-05T10:59:24.836Z,4.07
2023-03-05T11:02:27.730Z,4.30
2023-03-05T11:05:40.313Z,3.75
2023-03-05T11:08:43.132Z,3.70
2023-03-05T11:12:14.147Z,4.35
2023-03-05T11:15:17.095Z,5.18
2023-03-05T11:18:23.209Z,5.10
2023-03-05T11:21:28.526Z,4.15
2023-03-05T11:24:31.203Z,5.00
2023-03-05T11:27:33.830Z,5.88
2023-03-05T11:30:37.827Z,4.40
2023-03-05T11:33:53.630Z,4.43
2023-03-05T11:36:57.085Z,4.65
2023-03-05T11:40:15.775Z,3.80
2023-03-05T11:43:21.933Z,4.28
2023-03-05T11:46:25.935Z,4.32
2023-03-05T11:49:34.131Z,4.03
2023-03-05T11:53:09.992Z,4.68
2023-03-05T11:56:28.259Z,4.35
2023-03-05T11:59:35.921Z,3.95
2023-03-05T12:02:39.303Z,4.03
2023-03-05T12:05:46.917Z,4.23
2023-03-05T12:08:55.100Z,4.50
2023-03-05T12:12:12.906Z,4.10
2023-03-05T12:15:18.686Z,3.80
2023-03-05T12:18:38.186Z,4.32
2023-03-05T12:21:43.318Z,4.30
2023-03-05T12:24:46.231Z,4.03
2023-03-05T12:27:49.189Z,3.90
2023-03-05T12:30:52.160Z,4.07
2023-03-05T12:33:55.040Z,4.22
2023-03-05T12:36:58.076Z,4.67
2023-03-05T12:40:21.198Z,5.38
2023-03-05T12:43:32.570Z,3.58
2023-03-05T12:46:39.955Z,3.15
2023-03-05T12:49:45.650Z,3.40
2023-03-05T12:52:48.690Z,3.83
2023-03-05T12:56:01.130Z,3.40
2023-03-05T12:59:04.609Z,3.40
2023-03-05T13:02:31.714Z,5.47
2023-03-05T13:05:39.353Z,5.57
2023-03-05T13:08:43.728Z,4.70
2023-03-05T13:11:49.995Z,4.05
2023-03-05T13:15:02.085Z,3.60
2023-03-05T13:18:08.648Z,3.97
2023-03-05T13:21:17.521Z,4.55
2023-03-05T13:24:20.386Z,4.40
2023-03-05T13:27:31.388Z,3.70
2023-03-05T13:30:34.849Z,3.60
2023-03-05T13:33:38.605Z,3.47
2023-03-05T13:36:47.510Z,4.25
2023-03-05T13:39:55.376Z,3.23
2023-03-05T13:43:20.853Z,4.50
2023-03-05T13:46:32.931Z,3.30
2023-03-05T13:49:36.133Z,3.63
2023-03-05T13:52:39.284Z,3.50
2023-03-05T13:55:42.557Z,3.40
2023-03-05T13:58:52.998Z,4.00
2023-03-05T14:01:58.653Z,3.28
2023-03-05T14:05:02.036Z,3.55
2023-03-05T14:08:04.997Z,3.60
2023-03-05T14:11:18.743Z,3.90
2023-03-05T14:14:23.531Z,3.67
2023-03-05T14:17:45.209Z,3.72
2023-03-05T14:21:08.983Z,3.72
2023-03-05T14:24:24.344Z,5.10
2023-03-05T14:27:31.802Z,4.47
2023-03-05T14:30:36.428Z,4.13
2023-03-05T14:33:40.876Z,3.78
2023-03-05T14:36:48.939Z,3.55
2023-03-05T14:39:55.264Z,4.87
2023-03-05T14:43:10.766Z,5.30
2023-03-05T14:46:13.941Z,3.72
2023-03-05T14:49:17.778Z,5.28
2023-03-05T14:52:24.013Z,5.20
2023-03-05T14:55:31.702Z,5.55
2023-03-05T14:58:35.717Z,7.73
2023-03-05T15:01:38.577Z,10.20
2023-03-05T15:04:41.847Z,7.25
2023-03-05T15:07:46.200Z,8.85
2023-03-05T15:10:52.038Z,7.03
2023-03-05T15:13:55.035Z,5.73
2023-03-05T15:16:58.216Z,6.40
2023-03-05T15:20:01.540Z,6.90
2023-03-05T15:23:04.566Z,6.22
2023-03-05T15:26:09.802Z,6.82
2023-03-05T15:29:12.843Z,6.43
2023-03-05T15:32:16.449Z,6.30
2023-03-05T15:35:20.033Z,5.97
2023-03-05T15:38:23.414Z,7.10
2023-03-05T15:41:26.345Z,7.13
2023-03-05T15:44:29.422Z,8.50
2023-03-05T15:47:33.515Z,8.93
2023-03-05T15:50:36.735Z,8.18
2023-03-05T15:53:39.909Z,7.78
2023-03-05T15:56:43.019Z,8.73
2023-03-05T15:59:46.074Z,7.20
2023-03-05T16:02:49.161Z,6.93
2023-03-05T16:05:52.326Z,8.00
2023-03-05T16:09:01.003Z,10.02
2023-03-05T16:12:08.919Z,9.93
2023-03-05T16:15:15.365Z,9.77
2023-03-05T16:18:19.174Z,8.98
2023-03-05T16:21:22.423Z,8.27
2023-03-05T16:24:26.204Z,8.20
2023-03-05T16:27:29.696Z,8.43
2023-03-05T16:30:35.948Z,9.20
2023-03-05T16:33:39.128Z,8.35
2023-03-05T16:36:48.427Z,8.77
2023-03-05T16:39:52.409Z,8.52
2023-03-05T16:42:55.558Z,8.00
2023-03-05T16:45:58.602Z,7.47
2023-03-05T16:49:01.654Z,11.27
2023-03-05T16:52:16.429Z,10.30
2023-03-05T16:55:21.718Z,17.90
2023-03-05T16:58:24.569Z,22.07
2023-03-05T17:01:30.350Z,17.77
2023-03-05T17:04:34.123Z,16.65
2023-03-05T17:07:36.993Z,16.85
2023-03-05T17:10:42.038Z,14.23
2023-03-05T17:13:48.200Z,8.30
2023-03-05T17:16:52.006Z,5.90
2023-03-05T17:19:55.052Z,6.78
2023-03-05T17:22:59.033Z,5.65
2023-03-05T17:26:13.747Z,5.18
2023-03-05T17:29:19.077Z,6.60
2023-03-05T17:32:22.613Z,7.20
2023-03-05T17:35:25.543Z,8.43
2023-03-05T17:38:28.632Z,10.20
2023-03-05T17:41:31.640Z,11.50
2023-03-05T17:44:34.632Z,30.63
2023-03-05T17:47:38.079Z,48.97
2023-03-05T17:50:41.591Z,81.03
2023-03-05T17:53:45.345Z,57.80
2023-03-05T17:56:48.478Z,45.00
2023-03-05T17:59:51.750Z,40.67
2023-03-05T18:02:58.184Z,40.07
2023-03-05T18:06:01.319Z,38.38
2023-03-05T18:09:07.356Z,41.95
2023-03-05T18:12:10.294Z,41.13
2023-03-05T18:15:15.794Z,40.43
2023-03-05T18:18:18.982Z,37.90
2023-03-05T18:21:23.585Z,38.38
2023-03-05T18:24:26.935Z,32.38
2023-03-05T18:27:31.234Z,30.48
2023-03-05T18:30:34.578Z,26.60
2023-03-05T18:33:38.946Z,24.57
2023-03-05T18:36:41.950Z,34.78
2023-03-05T18:39:44.756Z,29.63
2023-03-05T18:42:48.443Z,62.67
2023-03-05T18:45:54.043Z,93.67
2023-03-05T18:48:57.143Z,108.00
2023-03-05T18:52:00.412Z,112.18
2023-03-05T18:55:03.646Z,94.00
2023-03-05T18:58:06.515Z,69.50
2023-03-05T19:01:09.866Z,68.63
2023-03-05T19:04:13.426Z,65.60
2023-03-05T19:07:16.473Z,63.38
2023-03-05T19:10:19.378Z,59.85
2023-03-05T19:13:40.233Z,45.80
2023-03-05T19:16:44.303Z,38.30
2023-03-05T19:19:55.018Z,49.27
2023-03-05T19:22:58.066Z,53.63
2023-03-05T19:26:02.287Z,51.65
2023-03-05T19:29:07.748Z,56.55
2023-03-05T19:32:14.694Z,48.63
2023-03-05T19:35:18.273Z,47.53
2023-03-05T19:38:21.133Z,45.55
2023-03-05T19:41:26.365Z,44.22
2023-03-05T19:44:30.059Z,47.72
2023-03-05T19:47:33.086Z,53.10
2023-03-05T19:50:36.154Z,50.23
2023-03-05T19:53:40.134Z,54.00
2023-03-05T19:56:44.713Z,61.88
2023-03-05T19:59:50.946Z,59.80
2023-03-05T20:02:54.057Z,63.57
2023-03-05T20:05:57.210Z,69.93
2023-03-05T20:09:00.424Z,72.22
2023-03-05T20:12:05.711Z,71.20
2023-03-05T20:15:08.979Z,66.72
2023-03-05T20:18:12.176Z,61.33
2023-03-05T20:21:21.561Z,66.27
2023-03-05T20:24:26.339Z,78.13
2023-03-05T20:27:29.077Z,69.25
2023-03-05T20:30:32.164Z,63.72
2023-03-05T20:33:35.150Z,56.47
2023-03-05T20:36:39.354Z,49.33
2023-03-05T20:39:42.460Z,54.17
2023-03-05T20:42:45.732Z,49.00
2023-03-05T20:45:49.544Z,40.00
2023-03-05T20:48:56.615Z,38.30
2023-03-05T20:51:59.679Z,41.43
2023-03-05T20:55:03.861Z,40.58
2023-03-05T20:58:07.264Z,54.03
2023-03-05T21:01:10.463Z,58.45
2023-03-05T21:04:13.824Z,56.33
2023-03-05T21:07:16.744Z,54.63
2023-03-05T21:10:20.719Z,54.08
2023-03-05T21:13:25.557Z,50.75
2023-03-05T21:16:28.741Z,49.92
2023-03-05T21:19:33.796Z,46.43
2023-03-05T21:22:36.841Z,44.37
2023-03-05T21:25:40.045Z,47.70
2023-03-05T21:28:43.259Z,45.35
2023-03-05T21:31:46.580Z,41.47
2023-03-05T21:34:49.600Z,36.17
2023-03-05T21:37:52.765Z,29.70
2023-03-05T21:40:58.159Z,27.10
2023-03-05T21:44:04.254Z,21.92
2023-03-05T21:47:07.332Z,19.65
2023-03-05T21:50:14.218Z,17.57
2023-03-05T21:53:18.519Z,16.60
2023-03-05T21:56:28.261Z,17.27
2023-03-05T21:59:31.125Z,15.90
2023-03-05T22:02:33.887Z,16.83
2023-03-05T22:05:36.778Z,16.43
2023-03-05T22:08:39.914Z,16.50
2023-03-05T22:11:44.116Z,17.65
2023-03-05T22:14:46.932Z,16.52
2023-03-05T22:17:50.016Z,14.50
2023-03-05T22:20:53.476Z,12.90
2023-03-05T22:23:57.603Z,12.03
2023-03-05T22:27:02.048Z,13.38
2023-03-05T22:30:05.775Z,13.13
2023-03-05T22:33:08.554Z,14.10
2023-03-05T22:36:12.610Z,12.83
2023-03-05T22:39:15.398Z,13.00
2023-03-05T22:42:18.180Z,12.90
2023-03-05T22:45:21.038Z,10.93
2023-03-05T22:48:23.793Z,12.07
2023-03-05T22:51:26.687Z,10.07
2023-03-05T22:54:29.480Z,9.37
2023-03-05T22:57:33.399Z,10.32
2023-03-05T23:00:36.358Z,10.48
2023-03-05T23:03:39.978Z,11.60
2023-03-05T23:06:42.725Z,11.73
2023-03-05T23:09:50.378Z,12.97
2023-03-05T23:12:54.840Z,11.90
2023-03-05T23:15:57.699Z,10.80
2023-03-05T23:19:00.569Z,10.68
2023-03-05T23:22:04.847Z,11.10
2023-03-05T23:25:08.021Z,9.50
2023-03-05T23:28:10.760Z,9.75
2023-03-05T23:31:13.526Z,9.27
2023-03-05T23:34:16.391Z,9.38
2023-03-05T23:37:19.049Z,9.93
2023-03-05T23:40:27.848Z,9.47
2023-03-05T23:43:30.907Z,9.63
2023-03-05T23:46:33.771Z,9.85
2023-03-05T23:49:36.713Z,9.88
2023-03-05T23:52:39.579Z,9.17
2023-03-05T23:55:44.172Z,8.97
2023-03-05T23:58:46.956Z,8.23
